Portada
METAR-TAF:

METAR-TAF

Aeroports :

Sanikiluaq, Nunavut, Canadà

latitud: 56-32N, longitud: 079-15W, altitud: 32 m

Observació

L'informe es va fer fa 10 hores i 34 minuts, a les 22:00 UTC
Vent 16 kt del Sud amb ràfegues de 22 kt
Temperatura -3°C
Humitat 93%
Pressió 1003 hPa
Visibilitat: 11.3 km
Cel ennuvolat a una alçada de 1500 ft

METAR: CYSK 272200Z 19016G22KT 7SM BKN015 M03/M04 A2963 RMK SC6 LAST STFD OBS/NXT 281200Z SLP038

Hora: 04:34 (08:34 UTC)


TAF: manca

Observacions i pronòstics meteorològics de més de 4000 aeroports (METAR i TAF).

Les estacions disponibles són els punts grocs i vermells al mapa.

Posi el ratolí al punt desitjat per veure el nom de l'estació.

Feu clic per veure les observacions i els pronòstics meteorològics.

Per canviar el mapa: feu clic els botons verds amb una creu de color negre per apropar; al botó verd amb un guió per allunyar la imatge; o en les fletxes verdes per a mapes adjacents.


METAR-TAF: